sensor_id;sensor_type;location;lat;lon;timestamp;P1;durP1;ratioP1;P2;durP2;ratioP2
51298;SDS011;37382;45.192;9.790;2022-11-18T00:01:17;46.05;;;31.02;;
51298;SDS011;37382;45.192;9.790;2022-11-18T00:03:47;49.63;;;30.38;;
51298;SDS011;37382;45.192;9.790;2022-11-18T00:06:22;47.88;;;29.95;;
51298;SDS011;37382;45.192;9.790;2022-11-18T00:08:51;55.45;;;31.02;;
51298;SDS011;37382;45.192;9.790;2022-11-18T00:11:23;47.38;;;30.63;;
51298;SDS011;37382;45.192;9.790;2022-11-18T00:14:12;48.42;;;29.75;;
51298;SDS011;37382;45.192;9.790;2022-11-18T00:19:26;52.97;;;30.35;;
51298;SDS011;37382;45.192;9.790;2022-11-18T00:21:55;49.03;;;29.08;;
51298;SDS011;37382;45.192;9.790;2022-11-18T00:24:24;43.78;;;30.05;;
51298;SDS011;37382;45.192;9.790;2022-11-18T00:26:52;46.55;;;30.15;;
51298;SDS011;37382;45.192;9.790;2022-11-18T00:29:20;49.83;;;30.88;;
51298;SDS011;37382;45.192;9.790;2022-11-18T00:31:48;43.35;;;29.27;;
51298;SDS011;37382;45.192;9.790;2022-11-18T00:34:18;43.85;;;28.08;;
51298;SDS011;37382;45.192;9.790;2022-11-18T00:36:45;48.38;;;29.30;;
51298;SDS011;37382;45.192;9.790;2022-11-18T00:39:14;48.30;;;29.08;;
51298;SDS011;37382;45.192;9.790;2022-11-18T00:41:44;43.03;;;29.25;;
51298;SDS011;37382;45.192;9.790;2022-11-18T00:44:30;46.80;;;29.95;;
51298;SDS011;37382;45.192;9.790;2022-11-18T00:46:58;42.45;;;28.60;;
51298;SDS011;37382;45.192;9.790;2022-11-18T00:49:25;42.70;;;30.13;;
51298;SDS011;37382;45.192;9.790;2022-11-18T00:51:52;46.65;;;29.77;;
51298;SDS011;37382;45.192;9.790;2022-11-18T00:54:20;48.40;;;30.20;;
51298;SDS011;37382;45.192;9.790;2022-11-18T00:56:48;44.10;;;31.20;;
51298;SDS011;37382;45.192;9.790;2022-11-18T00:59:33;41.53;;;29.90;;
51298;SDS011;37382;45.192;9.790;2022-11-18T01:02:00;45.92;;;30.08;;
51298;SDS011;37382;45.192;9.790;2022-11-18T01:04:28;42.58;;;29.45;;
51298;SDS011;37382;45.192;9.790;2022-11-18T01:06:56;49.75;;;30.75;;
51298;SDS011;37382;45.192;9.790;2022-11-18T01:09:23;44.22;;;30.52;;
51298;SDS011;37382;45.192;9.790;2022-11-18T01:11:51;44.65;;;29.42;;
51298;SDS011;37382;45.192;9.790;2022-11-18T01:14:36;47.33;;;30.90;;
51298;SDS011;37382;45.192;9.790;2022-11-18T01:17:04;47.45;;;30.85;;
51298;SDS011;37382;45.192;9.790;2022-11-18T01:19:31;44.72;;;30.95;;
51298;SDS011;37382;45.192;9.790;2022-11-18T01:21:59;49.25;;;31.55;;
51298;SDS011;37382;45.192;9.790;2022-11-18T01:24:30;46.78;;;29.60;;
51298;SDS011;37382;45.192;9.790;2022-11-18T01:27:00;46.97;;;30.87;;
51298;SDS011;37382;45.192;9.790;2022-11-18T01:29:27;50.45;;;31.77;;
51298;SDS011;37382;45.192;9.790;2022-11-18T01:31:55;50.17;;;31.65;;
51298;SDS011;37382;45.192;9.790;2022-11-18T01:34:42;51.92;;;33.10;;
51298;SDS011;37382;45.192;9.790;2022-11-18T01:37:09;51.45;;;32.67;;
51298;SDS011;37382;45.192;9.790;2022-11-18T01:39:38;45.45;;;31.13;;
51298;SDS011;37382;45.192;9.790;2022-11-18T01:42:10;49.25;;;30.23;;
51298;SDS011;37382;45.192;9.790;2022-11-18T01:44:52;47.83;;;32.55;;
51298;SDS011;37382;45.192;9.790;2022-11-18T01:47:41;50.08;;;31.45;;
51298;SDS011;37382;45.192;9.790;2022-11-18T01:50:15;56.28;;;31.73;;
51298;SDS011;37382;45.192;9.790;2022-11-18T01:52:46;48.63;;;32.30;;
51298;SDS011;37382;45.192;9.790;2022-11-18T01:55:20;52.78;;;32.92;;
51298;SDS011;37382;45.192;9.790;2022-11-18T01:57:53;57.38;;;33.20;;
51298;SDS011;37382;45.192;9.790;2022-11-18T02:00:28;51.47;;;32.95;;
51298;SDS011;37382;45.192;9.790;2022-11-18T02:02:55;53.47;;;33.20;;
51298;SDS011;37382;45.192;9.790;2022-11-18T02:05:24;50.67;;;32.15;;
51298;SDS011;37382;45.192;9.790;2022-11-18T02:07:52;48.65;;;31.70;;
51298;SDS011;37382;45.192;9.790;2022-11-18T02:10:20;54.45;;;33.20;;
51298;SDS011;37382;45.192;9.790;2022-11-18T02:12:51;50.67;;;33.25;;
51298;SDS011;37382;45.192;9.790;2022-11-18T02:15:23;52.65;;;34.38;;
51298;SDS011;37382;45.192;9.790;2022-11-18T02:18:09;53.35;;;32.60;;
51298;SDS011;37382;45.192;9.790;2022-11-18T02:20:38;51.53;;;32.95;;
51298;SDS011;37382;45.192;9.790;2022-11-18T02:23:14;47.90;;;30.80;;
51298;SDS011;37382;45.192;9.790;2022-11-18T02:34:17;45.85;;;31.73;;
51298;SDS011;37382;45.192;9.790;2022-11-18T02:36:59;51.50;;;30.88;;
51298;SDS011;37382;45.192;9.790;2022-11-18T02:39:50;55.85;;;32.80;;
51298;SDS011;37382;45.192;9.790;2022-11-18T02:42:21;53.67;;;32.22;;
51298;SDS011;37382;45.192;9.790;2022-11-18T02:44:53;49.55;;;33.33;;
51298;SDS011;37382;45.192;9.790;2022-11-18T02:47:27;51.80;;;32.00;;
51298;SDS011;37382;45.192;9.790;2022-11-18T02:49:59;54.28;;;32.20;;
51298;SDS011;37382;45.192;9.790;2022-11-18T02:52:30;47.78;;;32.25;;
51298;SDS011;37382;45.192;9.790;2022-11-18T02:58:42;49.60;;;30.83;;
51298;SDS011;37382;45.192;9.790;2022-11-18T03:01:17;51.22;;;31.50;;
51298;SDS011;37382;45.192;9.790;2022-11-18T03:03:47;46.75;;;30.98;;
51298;SDS011;37382;45.192;9.790;2022-11-18T03:09:00;49.50;;;33.13;;
51298;SDS011;37382;45.192;9.790;2022-11-18T03:12:21;50.42;;;32.50;;
51298;SDS011;37382;45.192;9.790;2022-11-18T03:15:02;54.03;;;31.95;;
51298;SDS011;37382;45.192;9.790;2022-11-18T03:17:43;53.28;;;33.13;;
51298;SDS011;37382;45.192;9.790;2022-11-18T03:20:28;54.22;;;34.90;;
51298;SDS011;37382;45.192;9.790;2022-11-18T03:23:03;52.92;;;34.25;;
51298;SDS011;37382;45.192;9.790;2022-11-18T03:25:49;53.95;;;34.95;;
51298;SDS011;37382;45.192;9.790;2022-11-18T03:28:41;60.80;;;35.17;;
51298;SDS011;37382;45.192;9.790;2022-11-18T03:31:14;53.35;;;36.17;;
51298;SDS011;37382;45.192;9.790;2022-11-18T03:36:40;56.45;;;36.28;;
51298;SDS011;37382;45.192;9.790;2022-11-18T03:39:18;54.03;;;36.13;;
51298;SDS011;37382;45.192;9.790;2022-11-18T03:43:14;64.55;;;37.08;;
51298;SDS011;37382;45.192;9.790;2022-11-18T03:45:48;64.97;;;37.83;;
51298;SDS011;37382;45.192;9.790;2022-11-18T03:48:19;63.65;;;39.58;;
51298;SDS011;37382;45.192;9.790;2022-11-18T03:50:52;68.40;;;38.30;;
51298;SDS011;37382;45.192;9.790;2022-11-18T03:53:27;66.30;;;38.45;;
51298;SDS011;37382;45.192;9.790;2022-11-18T03:56:04;67.63;;;37.15;;
51298;SDS011;37382;45.192;9.790;2022-11-18T04:01:49;67.55;;;40.83;;
51298;SDS011;37382;45.192;9.790;2022-11-18T04:04:18;75.07;;;42.13;;
51298;SDS011;37382;45.192;9.790;2022-11-18T04:06:52;76.03;;;44.60;;
51298;SDS011;37382;45.192;9.790;2022-11-18T04:12:04;77.28;;;44.40;;
51298;SDS011;37382;45.192;9.790;2022-11-18T04:14:37;77.88;;;45.22;;
51298;SDS011;37382;45.192;9.790;2022-11-18T04:17:12;75.60;;;44.63;;
51298;SDS011;37382;45.192;9.790;2022-11-18T04:19:41;80.97;;;45.70;;
51298;SDS011;37382;45.192;9.790;2022-11-18T04:22:09;76.00;;;43.85;;
51298;SDS011;37382;45.192;9.790;2022-11-18T04:24:37;74.53;;;43.58;;
51298;SDS011;37382;45.192;9.790;2022-11-18T04:27:05;74.57;;;42.72;;
51298;SDS011;37382;45.192;9.790;2022-11-18T04:29:33;69.05;;;41.63;;
51298;SDS011;37382;45.192;9.790;2022-11-18T04:32:00;77.07;;;43.75;;
51298;SDS011;37382;45.192;9.790;2022-11-18T04:34:29;71.75;;;42.78;;
51298;SDS011;37382;45.192;9.790;2022-11-18T04:36:57;65.50;;;42.08;;
51298;SDS011;37382;45.192;9.790;2022-11-18T04:39:24;74.13;;;44.50;;
51298;SDS011;37382;45.192;9.790;2022-11-18T04:41:52;73.20;;;44.05;;
51298;SDS011;37382;45.192;9.790;2022-11-18T04:46:58;78.60;;;44.53;;
51298;SDS011;37382;45.192;9.790;2022-11-18T04:49:27;81.97;;;44.65;;
51298;SDS011;37382;45.192;9.790;2022-11-18T04:51:55;79.85;;;45.70;;
51298;SDS011;37382;45.192;9.790;2022-11-18T04:54:23;77.47;;;45.58;;
51298;SDS011;37382;45.192;9.790;2022-11-18T04:56:51;82.38;;;47.47;;
51298;SDS011;37382;45.192;9.790;2022-11-18T04:59:21;76.15;;;46.25;;
51298;SDS011;37382;45.192;9.790;2022-11-18T05:01:54;78.35;;;44.83;;
51298;SDS011;37382;45.192;9.790;2022-11-18T05:04:23;82.35;;;44.83;;
51298;SDS011;37382;45.192;9.790;2022-11-18T05:06:52;80.28;;;44.90;;
51298;SDS011;37382;45.192;9.790;2022-11-18T05:09:20;86.43;;;46.55;;
51298;SDS011;37382;45.192;9.790;2022-11-18T05:11:53;82.47;;;46.78;;
51298;SDS011;37382;45.192;9.790;2022-11-18T05:14:39;86.82;;;47.22;;
51298;SDS011;37382;45.192;9.790;2022-11-18T05:17:14;88.38;;;47.67;;
51298;SDS011;37382;45.192;9.790;2022-11-18T05:19:41;81.60;;;46.70;;
51298;SDS011;37382;45.192;9.790;2022-11-18T05:22:08;89.72;;;47.85;;
51298;SDS011;37382;45.192;9.790;2022-11-18T05:24:36;86.53;;;46.85;;
51298;SDS011;37382;45.192;9.790;2022-11-18T05:27:03;89.40;;;44.65;;
51298;SDS011;37382;45.192;9.790;2022-11-18T05:29:31;79.13;;;45.50;;
51298;SDS011;37382;45.192;9.790;2022-11-18T05:31:59;76.07;;;44.03;;
51298;SDS011;37382;45.192;9.790;2022-11-18T05:34:27;86.63;;;45.53;;
51298;SDS011;37382;45.192;9.790;2022-11-18T05:36:55;84.20;;;45.38;;
51298;SDS011;37382;45.192;9.790;2022-11-18T05:39:43;78.45;;;44.00;;
51298;SDS011;37382;45.192;9.790;2022-11-18T05:42:10;84.60;;;45.47;;
51298;SDS011;37382;45.192;9.790;2022-11-18T05:45:30;79.90;;;44.08;;
51298;SDS011;37382;45.192;9.790;2022-11-18T05:47:58;83.25;;;44.50;;
51298;SDS011;37382;45.192;9.790;2022-11-18T05:50:31;85.40;;;44.25;;
51298;SDS011;37382;45.192;9.790;2022-11-18T05:53:04;83.25;;;42.17;;
51298;SDS011;37382;45.192;9.790;2022-11-18T05:55:36;70.75;;;42.08;;
51298;SDS011;37382;45.192;9.790;2022-11-18T05:58:08;80.28;;;42.45;;
51298;SDS011;37382;45.192;9.790;2022-11-18T06:00:35;81.07;;;44.35;;
51298;SDS011;37382;45.192;9.790;2022-11-18T06:03:04;70.85;;;42.13;;
51298;SDS011;37382;45.192;9.790;2022-11-18T06:05:38;79.38;;;45.35;;
51298;SDS011;37382;45.192;9.790;2022-11-18T06:08:06;75.32;;;41.92;;
51298;SDS011;37382;45.192;9.790;2022-11-18T06:10:35;76.40;;;43.42;;
51298;SDS011;37382;45.192;9.790;2022-11-18T06:13:05;80.50;;;44.45;;
51298;SDS011;37382;45.192;9.790;2022-11-18T06:15:38;80.40;;;44.28;;
51298;SDS011;37382;45.192;9.790;2022-11-18T06:18:09;78.90;;;44.22;;
51298;SDS011;37382;45.192;9.790;2022-11-18T06:20:42;85.40;;;43.40;;
51298;SDS011;37382;45.192;9.790;2022-11-18T06:23:10;84.55;;;45.08;;
51298;SDS011;37382;45.192;9.790;2022-11-18T06:25:39;78.40;;;46.28;;
51298;SDS011;37382;45.192;9.790;2022-11-18T06:28:08;96.95;;;48.85;;
51298;SDS011;37382;45.192;9.790;2022-11-18T06:30:38;93.85;;;48.78;;
51298;SDS011;37382;45.192;9.790;2022-11-18T06:33:06;95.53;;;48.90;;
51298;SDS011;37382;45.192;9.790;2022-11-18T06:35:34;102.18;;;48.60;;
51298;SDS011;37382;45.192;9.790;2022-11-18T06:38:02;109.50;;;51.38;;
51298;SDS011;37382;45.192;9.790;2022-11-18T06:40:29;107.57;;;53.00;;
51298;SDS011;37382;45.192;9.790;2022-11-18T06:43:04;104.65;;;50.92;;
51298;SDS011;37382;45.192;9.790;2022-11-18T06:46:01;114.65;;;54.67;;
51298;SDS011;37382;45.192;9.790;2022-11-18T06:48:48;122.22;;;54.55;;
51298;SDS011;37382;45.192;9.790;2022-11-18T06:51:15;106.72;;;52.33;;
51298;SDS011;37382;45.192;9.790;2022-11-18T06:53:44;102.88;;;52.55;;
51298;SDS011;37382;45.192;9.790;2022-11-18T06:56:12;101.07;;;51.15;;
51298;SDS011;37382;45.192;9.790;2022-11-18T06:58:41;107.38;;;51.42;;
51298;SDS011;37382;45.192;9.790;2022-11-18T07:04:03;96.32;;;50.33;;
51298;SDS011;37382;45.192;9.790;2022-11-18T07:06:32;114.50;;;52.45;;
51298;SDS011;37382;45.192;9.790;2022-11-18T07:09:01;113.43;;;52.33;;
51298;SDS011;37382;45.192;9.790;2022-11-18T07:11:33;97.97;;;49.28;;
51298;SDS011;37382;45.192;9.790;2022-11-18T07:14:01;111.88;;;52.08;;
51298;SDS011;37382;45.192;9.790;2022-11-18T07:16:29;103.80;;;51.10;;
51298;SDS011;37382;45.192;9.790;2022-11-18T07:18:56;99.80;;;51.42;;
51298;SDS011;37382;45.192;9.790;2022-11-18T07:21:24;101.45;;;49.75;;
51298;SDS011;37382;45.192;9.790;2022-11-18T07:23:54;94.75;;;48.03;;
51298;SDS011;37382;45.192;9.790;2022-11-18T07:26:22;99.32;;;48.33;;
51298;SDS011;37382;45.192;9.790;2022-11-18T07:28:50;91.50;;;49.17;;
51298;SDS011;37382;45.192;9.790;2022-11-18T07:31:18;94.90;;;47.33;;
51298;SDS011;37382;45.192;9.790;2022-11-18T07:33:46;88.97;;;46.55;;
51298;SDS011;37382;45.192;9.790;2022-11-18T07:36:15;94.45;;;47.90;;
51298;SDS011;37382;45.192;9.790;2022-11-18T07:38:45;86.80;;;46.75;;
51298;SDS011;37382;45.192;9.790;2022-11-18T07:41:14;85.88;;;46.15;;
51298;SDS011;37382;45.192;9.790;2022-11-18T07:43:43;83.95;;;43.35;;
51298;SDS011;37382;45.192;9.790;2022-11-18T07:46:12;85.90;;;45.47;;
51298;SDS011;37382;45.192;9.790;2022-11-18T07:48:46;85.30;;;44.58;;
51298;SDS011;37382;45.192;9.790;2022-11-18T07:51:16;77.45;;;43.95;;
51298;SDS011;37382;45.192;9.790;2022-11-18T07:53:46;86.05;;;43.72;;
51298;SDS011;37382;45.192;9.790;2022-11-18T07:56:15;77.60;;;42.67;;
51298;SDS011;37382;45.192;9.790;2022-11-18T07:58:44;76.03;;;43.22;;
51298;SDS011;37382;45.192;9.790;2022-11-18T08:01:13;86.30;;;42.97;;
51298;SDS011;37382;45.192;9.790;2022-11-18T08:03:41;77.05;;;43.88;;
51298;SDS011;37382;45.192;9.790;2022-11-18T08:06:09;75.22;;;41.90;;
51298;SDS011;37382;45.192;9.790;2022-11-18T08:08:38;76.35;;;40.60;;
51298;SDS011;37382;45.192;9.790;2022-11-18T08:11:08;77.82;;;43.17;;
51298;SDS011;37382;45.192;9.790;2022-11-18T08:13:48;79.45;;;44.95;;
51298;SDS011;37382;45.192;9.790;2022-11-18T08:16:17;76.25;;;43.53;;
51298;SDS011;37382;45.192;9.790;2022-11-18T08:18:47;75.60;;;40.97;;
51298;SDS011;37382;45.192;9.790;2022-11-18T08:21:16;74.88;;;42.55;;
51298;SDS011;37382;45.192;9.790;2022-11-18T08:23:48;80.20;;;42.28;;
51298;SDS011;37382;45.192;9.790;2022-11-18T08:26:18;78.68;;;44.08;;
51298;SDS011;37382;45.192;9.790;2022-11-18T08:29:26;79.82;;;42.40;;
51298;SDS011;37382;45.192;9.790;2022-11-18T08:31:54;74.82;;;40.58;;
51298;SDS011;37382;45.192;9.790;2022-11-18T08:34:22;76.95;;;41.60;;
51298;SDS011;37382;45.192;9.790;2022-11-18T08:36:49;74.97;;;41.53;;
51298;SDS011;37382;45.192;9.790;2022-11-18T08:39:17;71.13;;;41.35;;
51298;SDS011;37382;45.192;9.790;2022-11-18T08:41:44;70.43;;;40.35;;
51298;SDS011;37382;45.192;9.790;2022-11-18T08:44:14;73.50;;;41.47;;
51298;SDS011;37382;45.192;9.790;2022-11-18T08:46:42;76.25;;;43.45;;
51298;SDS011;37382;45.192;9.790;2022-11-18T08:49:11;76.80;;;41.28;;
51298;SDS011;37382;45.192;9.790;2022-11-18T08:51:39;76.72;;;40.50;;
51298;SDS011;37382;45.192;9.790;2022-11-18T08:54:07;70.85;;;41.05;;
51298;SDS011;37382;45.192;9.790;2022-11-18T08:56:35;71.90;;;40.65;;
51298;SDS011;37382;45.192;9.790;2022-11-18T08:59:02;71.93;;;39.88;;
51298;SDS011;37382;45.192;9.790;2022-11-18T09:01:30;65.82;;;39.10;;
51298;SDS011;37382;45.192;9.790;2022-11-18T09:06:45;71.70;;;38.53;;
51298;SDS011;37382;45.192;9.790;2022-11-18T09:09:13;84.55;;;39.95;;
51298;SDS011;37382;45.192;9.790;2022-11-18T09:11:41;75.57;;;38.28;;
51298;SDS011;37382;45.192;9.790;2022-11-18T09:14:10;70.70;;;38.72;;
51298;SDS011;37382;45.192;9.790;2022-11-18T09:16:57;66.43;;;37.65;;
51298;SDS011;37382;45.192;9.790;2022-11-18T09:19:25;73.97;;;39.33;;
51298;SDS011;37382;45.192;9.790;2022-11-18T09:22:13;66.97;;;36.83;;
51298;SDS011;37382;45.192;9.790;2022-11-18T09:24:41;66.15;;;36.55;;
51298;SDS011;37382;45.192;9.790;2022-11-18T09:27:09;71.18;;;37.20;;
51298;SDS011;37382;45.192;9.790;2022-11-18T09:29:43;62.00;;;35.35;;
51298;SDS011;37382;45.192;9.790;2022-11-18T09:35:01;69.60;;;36.15;;
51298;SDS011;37382;45.192;9.790;2022-11-18T09:37:29;71.57;;;36.45;;
51298;SDS011;37382;45.192;9.790;2022-11-18T09:39:59;63.10;;;35.28;;
51298;SDS011;37382;45.192;9.790;2022-11-18T09:45:24;71.32;;;38.00;;
51298;SDS011;37382;45.192;9.790;2022-11-18T09:47:57;70.95;;;38.55;;
51298;SDS011;37382;45.192;9.790;2022-11-18T09:50:27;69.35;;;37.53;;
51298;SDS011;37382;45.192;9.790;2022-11-18T09:53:18;66.00;;;37.35;;
51298;SDS011;37382;45.192;9.790;2022-11-18T09:55:50;66.60;;;38.40;;
51298;SDS011;37382;45.192;9.790;2022-11-18T09:58:25;67.40;;;36.67;;
51298;SDS011;37382;45.192;9.790;2022-11-18T10:01:00;72.10;;;39.90;;
51298;SDS011;37382;45.192;9.790;2022-11-18T10:03:28;69.65;;;37.67;;
51298;SDS011;37382;45.192;9.790;2022-11-18T10:09:02;70.25;;;39.70;;
51298;SDS011;37382;45.192;9.790;2022-11-18T10:14:49;69.90;;;38.20;;
51298;SDS011;37382;45.192;9.790;2022-11-18T10:23:31;71.10;;;37.40;;
51298;SDS011;37382;45.192;9.790;2022-11-18T10:26:04;73.70;;;38.28;;
51298;SDS011;37382;45.192;9.790;2022-11-18T10:28:32;65.25;;;37.40;;
51298;SDS011;37382;45.192;9.790;2022-11-18T10:32:14;67.47;;;37.80;;
51298;SDS011;37382;45.192;9.790;2022-11-18T10:34:54;66.10;;;36.55;;
51298;SDS011;37382;45.192;9.790;2022-11-18T10:40:22;65.93;;;36.08;;
51298;SDS011;37382;45.192;9.790;2022-11-18T10:42:52;72.65;;;37.38;;
51298;SDS011;37382;45.192;9.790;2022-11-18T10:50:35;70.82;;;37.17;;
51298;SDS011;37382;45.192;9.790;2022-11-18T10:53:43;61.65;;;35.55;;
51298;SDS011;37382;45.192;9.790;2022-11-18T10:56:12;63.10;;;36.33;;
51298;SDS011;37382;45.192;9.790;2022-11-18T10:58:49;55.83;;;35.17;;
51298;SDS011;37382;45.192;9.790;2022-11-18T11:01:19;61.65;;;34.38;;
51298;SDS011;37382;45.192;9.790;2022-11-18T11:06:55;68.10;;;36.42;;
51298;SDS011;37382;45.192;9.790;2022-11-18T11:09:29;63.67;;;37.60;;
51298;SDS011;37382;45.192;9.790;2022-11-18T11:12:01;64.68;;;35.92;;
51298;SDS011;37382;45.192;9.790;2022-11-18T11:17:33;65.00;;;36.97;;
51298;SDS011;37382;45.192;9.790;2022-11-18T11:22:43;60.22;;;36.15;;
51298;SDS011;37382;45.192;9.790;2022-11-18T11:25:16;71.38;;;37.33;;
51298;SDS011;37382;45.192;9.790;2022-11-18T11:27:58;64.82;;;37.85;;
51298;SDS011;37382;45.192;9.790;2022-11-18T11:31:06;72.15;;;42.05;;
51298;SDS011;37382;45.192;9.790;2022-11-18T11:39:09;66.85;;;39.80;;
51298;SDS011;37382;45.192;9.790;2022-11-18T11:50:32;64.45;;;36.20;;
51298;SDS011;37382;45.192;9.790;2022-11-18T11:53:45;62.17;;;36.22;;
51298;SDS011;37382;45.192;9.790;2022-11-18T11:56:34;66.10;;;37.80;;
51298;SDS011;37382;45.192;9.790;2022-11-18T12:02:02;59.08;;;35.47;;
51298;SDS011;37382;45.192;9.790;2022-11-18T12:07:45;61.97;;;35.55;;
51298;SDS011;37382;45.192;9.790;2022-11-18T12:19:37;51.92;;;30.88;;
51298;SDS011;37382;45.192;9.790;2022-11-18T12:22:05;53.83;;;32.25;;
51298;SDS011;37382;45.192;9.790;2022-11-18T12:24:42;56.67;;;33.25;;
51298;SDS011;37382;45.192;9.790;2022-11-18T12:30:01;54.67;;;31.77;;
51298;SDS011;37382;45.192;9.790;2022-11-18T12:32:38;49.08;;;29.23;;
51298;SDS011;37382;45.192;9.790;2022-11-18T12:35:26;45.05;;;26.00;;
51298;SDS011;37382;45.192;9.790;2022-11-18T12:40:30;46.35;;;27.33;;
51298;SDS011;37382;45.192;9.790;2022-11-18T12:43:03;42.47;;;27.92;;
51298;SDS011;37382;45.192;9.790;2022-11-18T12:46:08;50.30;;;27.35;;
51298;SDS011;37382;45.192;9.790;2022-11-18T12:48:57;46.35;;;28.85;;
51298;SDS011;37382;45.192;9.790;2022-11-18T12:51:37;48.13;;;28.77;;
51298;SDS011;37382;45.192;9.790;2022-11-18T12:54:26;39.92;;;26.90;;
51298;SDS011;37382;45.192;9.790;2022-11-18T12:57:05;48.22;;;27.45;;
51298;SDS011;37382;45.192;9.790;2022-11-18T12:59:39;40.85;;;26.30;;
51298;SDS011;37382;45.192;9.790;2022-11-18T13:04:37;45.33;;;26.42;;
51298;SDS011;37382;45.192;9.790;2022-11-18T13:07:12;37.70;;;25.00;;
51298;SDS011;37382;45.192;9.790;2022-11-18T13:09:58;50.58;;;27.55;;
51298;SDS011;37382;45.192;9.790;2022-11-18T13:12:30;49.78;;;26.90;;
51298;SDS011;37382;45.192;9.790;2022-11-18T13:15:00;42.28;;;26.23;;
51298;SDS011;37382;45.192;9.790;2022-11-18T13:17:46;38.38;;;25.35;;
51298;SDS011;37382;45.192;9.790;2022-11-18T13:20:22;42.85;;;25.67;;
51298;SDS011;37382;45.192;9.790;2022-11-18T13:25:55;38.30;;;23.85;;
51298;SDS011;37382;45.192;9.790;2022-11-18T13:34:02;37.80;;;22.13;;
51298;SDS011;37382;45.192;9.790;2022-11-18T13:36:41;40.65;;;21.58;;
51298;SDS011;37382;45.192;9.790;2022-11-18T13:39:11;39.33;;;22.23;;
51298;SDS011;37382;45.192;9.790;2022-11-18T13:44:54;34.15;;;21.05;;
51298;SDS011;37382;45.192;9.790;2022-11-18T13:47:34;34.72;;;21.10;;
51298;SDS011;37382;45.192;9.790;2022-11-18T13:52:39;35.08;;;20.77;;
51298;SDS011;37382;45.192;9.790;2022-11-18T13:55:15;35.50;;;18.65;;
51298;SDS011;37382;45.192;9.790;2022-11-18T13:57:48;30.65;;;17.70;;
51298;SDS011;37382;45.192;9.790;2022-11-18T14:00:19;28.55;;;18.45;;
51298;SDS011;37382;45.192;9.790;2022-11-18T14:02:56;30.50;;;17.83;;
51298;SDS011;37382;45.192;9.790;2022-11-18T14:05:44;30.63;;;17.80;;
51298;SDS011;37382;45.192;9.790;2022-11-18T14:08:30;23.20;;;14.50;;
51298;SDS011;37382;45.192;9.790;2022-11-18T14:11:02;24.58;;;14.50;;
51298;SDS011;37382;45.192;9.790;2022-11-18T14:16:01;25.52;;;14.18;;
51298;SDS011;37382;45.192;9.790;2022-11-18T14:18:50;22.83;;;13.32;;
51298;SDS011;37382;45.192;9.790;2022-11-18T14:21:27;18.98;;;13.55;;
51298;SDS011;37382;45.192;9.790;2022-11-18T14:23:57;18.05;;;11.80;;
51298;SDS011;37382;45.192;9.790;2022-11-18T14:26:29;23.90;;;12.27;;
51298;SDS011;37382;45.192;9.790;2022-11-18T14:29:12;21.50;;;12.75;;
51298;SDS011;37382;45.192;9.790;2022-11-18T14:34:39;20.45;;;12.50;;
51298;SDS011;37382;45.192;9.790;2022-11-18T14:37:13;17.85;;;10.70;;
51298;SDS011;37382;45.192;9.790;2022-11-18T14:39:41;15.65;;;10.20;;
51298;SDS011;37382;45.192;9.790;2022-11-18T14:42:21;18.65;;;11.88;;
51298;SDS011;37382;45.192;9.790;2022-11-18T14:44:49;16.30;;;11.30;;
51298;SDS011;37382;45.192;9.790;2022-11-18T14:47:25;22.40;;;12.32;;
51298;SDS011;37382;45.192;9.790;2022-11-18T14:49:54;23.58;;;12.10;;
51298;SDS011;37382;45.192;9.790;2022-11-18T14:52:22;23.27;;;11.23;;
51298;SDS011;37382;45.192;9.790;2022-11-18T14:54:49;26.00;;;11.82;;
51298;SDS011;37382;45.192;9.790;2022-11-18T14:57:18;22.83;;;11.70;;
51298;SDS011;37382;45.192;9.790;2022-11-18T14:59:45;21.35;;;11.25;;
51298;SDS011;37382;45.192;9.790;2022-11-18T15:02:14;21.02;;;11.85;;
51298;SDS011;37382;45.192;9.790;2022-11-18T15:04:44;19.92;;;11.45;;
51298;SDS011;37382;45.192;9.790;2022-11-18T15:07:13;20.67;;;10.93;;
51298;SDS011;37382;45.192;9.790;2022-11-18T15:09:49;22.98;;;11.38;;
51298;SDS011;37382;45.192;9.790;2022-11-18T15:12:17;20.05;;;11.90;;
51298;SDS011;37382;45.192;9.790;2022-11-18T15:14:45;16.25;;;11.55;;
51298;SDS011;37382;45.192;9.790;2022-11-18T15:17:13;24.77;;;11.32;;
51298;SDS011;37382;45.192;9.790;2022-11-18T15:19:40;20.23;;;10.93;;
51298;SDS011;37382;45.192;9.790;2022-11-18T15:22:08;17.58;;;11.27;;
51298;SDS011;37382;45.192;9.790;2022-11-18T15:24:35;24.63;;;11.50;;
51298;SDS011;37382;45.192;9.790;2022-11-18T15:27:03;21.67;;;11.05;;
51298;SDS011;37382;45.192;9.790;2022-11-18T15:29:31;17.67;;;10.82;;
51298;SDS011;37382;45.192;9.790;2022-11-18T15:31:59;17.02;;;10.32;;
51298;SDS011;37382;45.192;9.790;2022-11-18T15:37:14;18.35;;;9.88;;
51298;SDS011;37382;45.192;9.790;2022-11-18T15:39:41;16.73;;;9.35;;
51298;SDS011;37382;45.192;9.790;2022-11-18T15:42:10;18.00;;;9.43;;
51298;SDS011;37382;45.192;9.790;2022-11-18T15:44:37;19.05;;;10.13;;
51298;SDS011;37382;45.192;9.790;2022-11-18T15:47:05;24.05;;;12.02;;
51298;SDS011;37382;45.192;9.790;2022-11-18T15:49:32;20.23;;;13.18;;
51298;SDS011;37382;45.192;9.790;2022-11-18T15:52:00;26.83;;;14.07;;
51298;SDS011;37382;45.192;9.790;2022-11-18T15:54:27;21.30;;;12.18;;
51298;SDS011;37382;45.192;9.790;2022-11-18T15:56:54;28.33;;;14.18;;
51298;SDS011;37382;45.192;9.790;2022-11-18T15:59:22;26.38;;;15.63;;
51298;SDS011;37382;45.192;9.790;2022-11-18T16:01:49;25.63;;;14.18;;
51298;SDS011;37382;45.192;9.790;2022-11-18T16:04:20;33.97;;;18.98;;
51298;SDS011;37382;45.192;9.790;2022-11-18T16:06:48;27.40;;;17.67;;
51298;SDS011;37382;45.192;9.790;2022-11-18T16:09:16;40.72;;;20.85;;
51298;SDS011;37382;45.192;9.790;2022-11-18T16:11:45;30.30;;;19.92;;
51298;SDS011;37382;45.192;9.790;2022-11-18T16:14:34;32.70;;;19.08;;
51298;SDS011;37382;45.192;9.790;2022-11-18T16:17:04;29.20;;;19.15;;
51298;SDS011;37382;45.192;9.790;2022-11-18T16:19:32;58.08;;;42.15;;
51298;SDS011;37382;45.192;9.790;2022-11-18T16:21:59;42.30;;;28.27;;
51298;SDS011;37382;45.192;9.790;2022-11-18T16:24:27;46.60;;;32.65;;
51298;SDS011;37382;45.192;9.790;2022-11-18T16:26:56;46.20;;;29.30;;
51298;SDS011;37382;45.192;9.790;2022-11-18T16:29:23;44.88;;;30.23;;
51298;SDS011;37382;45.192;9.790;2022-11-18T16:33:04;45.53;;;27.48;;
51298;SDS011;37382;45.192;9.790;2022-11-18T16:35:32;42.05;;;26.38;;
51298;SDS011;37382;45.192;9.790;2022-11-18T16:37:59;32.88;;;19.23;;
51298;SDS011;37382;45.192;9.790;2022-11-18T16:40:26;33.10;;;16.33;;
51298;SDS011;37382;45.192;9.790;2022-11-18T16:42:54;35.95;;;22.25;;
51298;SDS011;37382;45.192;9.790;2022-11-18T16:45:22;34.45;;;24.92;;
51298;SDS011;37382;45.192;9.790;2022-11-18T16:47:49;42.22;;;29.10;;
51298;SDS011;37382;45.192;9.790;2022-11-18T16:50:17;41.42;;;28.30;;
51298;SDS011;37382;45.192;9.790;2022-11-18T16:52:44;42.08;;;26.35;;
51298;SDS011;37382;45.192;9.790;2022-11-18T16:55:11;38.65;;;26.55;;
51298;SDS011;37382;45.192;9.790;2022-11-18T16:57:39;30.17;;;20.25;;
51298;SDS011;37382;45.192;9.790;2022-11-18T17:00:06;36.28;;;22.20;;
51298;SDS011;37382;45.192;9.790;2022-11-18T17:02:34;46.03;;;26.50;;
51298;SDS011;37382;45.192;9.790;2022-11-18T17:05:02;32.28;;;19.70;;